Time;durP1;ratioP1;P1;durP2;ratioP2;P2;SDS_P1;SDS_P2;PMS_P1;PMS_P2;Temp;Humidity;BMP_temperature;BMP_pressure;BME280_temperature;BME280_humidity;BME280_pressure;Samples;Min_cycle;Max_cycle;Signal;HPM_P1;HPM_P2
2021/06/24 00:00:14;;;;;;;7.37;5.37;;;;;;;11.51;72.54;102377.56;679895;29;964;-63
2021/06/24 00:00:37;;;;;;;6.85;5.25;;;;;;;11.48;72.80;102373.22;679775;29;1028;-63
2021/06/24 00:01:01;;;;;;;6.53;5.30;;;;;;;11.45;72.81;102373.28;680001;29;809;-63
2021/06/24 00:01:21;;;;;;;7.47;5.38;;;;;;;11.51;72.46;102374.94;679869;29;940;-63
2021/06/24 00:01:41;;;;;;;7.27;5.20;;;;;;;11.47;72.71;102375.91;680874;29;939;-63
2021/06/24 00:02:03;;;;;;;6.43;5.03;;;;;;;11.51;72.78;102377.56;682811;29;841;-63
2021/06/24 00:02:23;;;;;;;6.97;5.03;;;;;;;11.55;72.40;102368.69;682721;29;1345;-63
2021/06/24 00:02:43;;;;;;;6.30;5.00;;;;;;;11.57;72.88;102377.44;682351;29;991;-63
2021/06/24 00:03:05;;;;;;;6.20;4.90;;;;;;;11.57;72.72;102378.31;682479;29;1431;-62
2021/06/24 00:03:27;;;;;;;6.28;4.90;;;;;;;11.60;72.96;102378.25;682671;29;991;-63
2021/06/24 00:03:47;;;;;;;5.57;4.95;;;;;;;11.64;72.58;102368.50;682780;29;908;-64
2021/06/24 00:04:10;;;;;;;5.87;5.00;;;;;;;11.64;72.49;102377.28;682734;28;1410;-63
2021/06/24 00:04:30;;;;;;;6.13;5.00;;;;;;;11.65;72.51;102381.66;682663;29;1019;-64
2021/06/24 00:04:51;;;;;;;5.72;5.00;;;;;;;11.61;72.86;102376.47;682822;29;1023;-64
2021/06/24 00:05:11;;;;;;;6.47;5.00;;;;;;;11.61;72.60;102381.75;682708;29;995;-64
2021/06/24 00:05:32;;;;;;;7.00;4.85;;;;;;;11.54;72.70;102380.16;682683;29;1031;-64
2021/06/24 00:05:53;;;;;;;7.47;5.03;;;;;;;11.49;72.94;102374.09;682813;29;789;-64
2021/06/24 00:06:13;;;;;;;6.88;5.05;;;;;;;11.54;72.76;102374.88;682695;29;891;-63
2021/06/24 00:06:33;;;;;;;6.23;4.80;;;;;;;11.51;72.89;102377.56;682785;29;999;-63
2021/06/24 00:06:54;;;;;;;6.10;4.90;;;;;;;11.50;73.09;102382.00;682872;29;896;-63
2021/06/24 00:07:14;;;;;;;6.67;4.93;;;;;;;11.52;73.47;102379.31;682713;29;774;-64
2021/06/24 00:07:34;;;;;;;6.80;5.00;;;;;;;11.51;73.50;102382.84;682718;29;962;-63
2021/06/24 00:07:55;;;;;;;6.23;5.30;;;;;;;11.50;73.20;102386.41;682500;29;1499;-63
2021/06/24 00:08:15;;;;;;;6.47;5.43;;;;;;;11.53;73.20;102381.06;682724;29;861;-63
2021/06/24 00:08:36;;;;;;;6.20;5.00;;;;;;;11.48;73.04;102377.63;682781;29;960;-64
2021/06/24 00:08:56;;;;;;;6.70;5.10;;;;;;;11.52;73.05;102387.22;682635;29;1142;-64
2021/06/24 00:09:16;;;;;;;7.50;5.10;;;;;;;11.57;72.95;102388.00;682710;29;972;-64
2021/06/24 00:09:36;;;;;;;6.60;5.00;;;;;;;11.64;72.49;102379.06;682792;29;880;-65
2021/06/24 00:09:57;;;;;;;6.10;5.30;;;;;;;11.68;72.36;102380.72;682754;29;853;-63
2021/06/24 00:10:17;;;;;;;6.10;5.05;;;;;;;11.69;72.11;102385.09;682722;29;925;-64
2021/06/24 00:10:40;;;;;;;6.70;5.00;;;;;;;11.63;72.44;102387.84;679800;29;1841;-64
2021/06/24 00:11:01;;;;;;;5.70;5.10;;;;;;;11.65;72.16;102383.41;679982;29;892;-64
2021/06/24 00:11:21;;;;;;;5.68;4.90;;;;;;;11.65;72.54;102386.06;679911;29;1019;-64
2021/06/24 00:11:42;;;;;;;6.20;5.03;;;;;;;11.65;72.56;102375.50;679970;29;801;-63
2021/06/24 00:12:02;;;;;;;5.95;4.90;;;;;;;11.74;72.44;102390.28;679889;29;1023;-63
2021/06/24 00:12:22;;;;;;;5.95;4.80;;;;;;;11.73;72.27;102384.09;680477;29;992;-62
2021/06/24 00:12:43;;;;;;;6.57;4.93;;;;;;;11.74;72.20;102388.50;682467;29;856;-62
2021/06/24 00:13:03;;;;;;;6.90;4.83;;;;;;;11.75;72.14;102378.81;682620;29;835;-62
2021/06/24 00:13:25;;;;;;;6.50;5.18;;;;;;;11.80;72.02;102379.56;682628;29;1012;-62
2021/06/24 00:13:45;;;;;;;6.50;5.38;;;;;;;11.72;72.18;102382.38;682749;29;1970;-62
2021/06/24 00:14:06;;;;;;;7.17;5.37;;;;;;;11.64;71.98;102379.06;682512;29;1252;-62
2021/06/24 00:14:26;;;;;;;7.00;5.27;;;;;;;11.65;72.23;102386.06;682552;29;908;-62
2021/06/24 00:14:46;;;;;;;6.10;5.43;;;;;;;11.58;72.33;102373.91;682855;29;912;-62
2021/06/24 00:15:07;;;;;;;6.33;5.30;;;;;;;11.58;72.58;102376.53;682588;29;1550;-62
2021/06/24 00:15:28;;;;;;;6.95;5.40;;;;;;;11.61;72.52;102379.97;682754;29;912;-62
2021/06/24 00:15:49;;;;;;;6.90;5.40;;;;;;;11.57;72.65;102377.44;682783;29;1068;-63
2021/06/24 00:16:10;;;;;;;6.68;5.30;;;;;;;11.56;72.89;102379.22;682535;29;853;-62
2021/06/24 00:16:31;;;;;;;7.05;5.30;;;;;;;11.51;72.96;102372.28;682695;29;887;-62
2021/06/24 00:16:51;;;;;;;6.95;5.47;;;;;;;11.47;73.09;102378.53;682814;29;974;-62
2021/06/24 00:17:11;;;;;;;6.77;5.30;;;;;;;11.46;73.40;102374.16;682666;29;912;-63
2021/06/24 00:17:31;;;;;;;6.33;5.13;;;;;;;11.45;73.38;102368.00;682834;29;843;-62
2021/06/24 00:17:52;;;;;;;6.40;5.20;;;;;;;11.47;73.12;102376.78;682802;29;968;-62
2021/06/24 00:18:12;;;;;;;6.57;5.00;;;;;;;11.48;73.48;102372.34;682569;29;785;-62
2021/06/24 00:18:33;;;;;;;7.28;5.13;;;;;;;11.50;73.40;102375.84;682669;29;1016;-62
2021/06/24 00:18:53;;;;;;;6.40;5.30;;;;;;;11.49;73.18;102377.59;682837;29;805;-62
2021/06/24 00:19:14;;;;;;;6.97;5.20;;;;;;;11.44;73.48;102371.56;682680;29;1000;-62
2021/06/24 00:19:34;;;;;;;7.80;5.43;;;;;;;11.44;73.59;102375.97;682777;29;939;-62
2021/06/24 00:19:54;;;;;;;6.30;5.40;;;;;;;11.48;73.40;102369.72;682765;29;806;-63
2021/06/24 00:20:15;;;;;;;6.28;5.30;;;;;;;11.46;73.38;102374.16;682592;29;1546;-62
2021/06/24 00:20:37;;;;;;;6.60;5.70;;;;;;;11.48;73.26;102372.34;682293;29;1356;-63
2021/06/24 00:20:57;;;;;;;6.68;5.55;;;;;;;11.51;73.25;102372.28;682755;29;975;-63
2021/06/24 00:21:18;;;;;;;7.15;5.38;;;;;;;11.49;73.53;102374.09;682632;29;971;-63
2021/06/24 00:21:38;;;;;;;6.90;5.43;;;;;;;11.41;73.64;102372.47;682804;29;960;-63
2021/06/24 00:21:59;;;;;;;6.37;5.57;;;;;;;11.47;73.72;102375.91;682866;29;901;-63
2021/06/24 00:22:19;;;;;;;6.57;5.23;;;;;;;11.42;73.47;102370.69;682618;29;956;-63
2021/06/24 00:22:39;;;;;;;8.35;5.43;;;;;;;11.41;73.47;102375.13;682224;29;1471;-63
2021/06/24 00:22:59;;;;;;;7.53;5.67;;;;;;;11.38;73.58;102377.81;682619;29;817;-63
2021/06/24 00:23:20;;;;;;;7.27;5.47;;;;;;;11.38;73.41;102375.19;682755;29;963;-63
2021/06/24 00:23:40;;;;;;;6.57;5.00;;;;;;;11.43;73.57;102377.75;682706;29;867;-63
2021/06/24 00:24:00;;;;;;;6.53;5.00;;;;;;;11.46;73.50;102379.44;682743;29;1453;-63
2021/06/24 00:24:21;;;;;;;6.67;5.10;;;;;;;11.47;73.48;102376.78;682531;29;881;-62
2021/06/24 00:24:41;;;;;;;6.40;5.20;;;;;;;11.50;73.56;102378.47;682732;29;963;-63
2021/06/24 00:25:02;;;;;;;6.80;5.47;;;;;;;11.51;73.11;102380.22;682747;29;1068;-63
2021/06/24 00:25:22;;;;;;;7.40;5.60;;;;;;;11.51;73.35;102378.44;682756;29;837;-62
2021/06/24 00:25:43;;;;;;;5.95;5.10;;;;;;;11.54;73.12;102378.38;682743;29;1037;-62
2021/06/24 00:26:04;;;;;;;6.28;5.20;;;;;;;11.53;73.13;102379.28;682852;29;900;-63
2021/06/24 00:26:24;;;;;;;7.10;5.30;;;;;;;11.55;72.86;102384.53;682498;29;849;-62
2021/06/24 00:26:44;;;;;;;6.87;5.33;;;;;;;11.54;73.05;102382.78;682829;29;916;-62
2021/06/24 00:27:05;;;;;;;7.70;5.55;;;;;;;11.46;73.12;102382.06;682834;29;923;-62
2021/06/24 00:27:25;;;;;;;6.60;5.80;;;;;;;11.40;73.49;102381.31;682716;29;837;-62
2021/06/24 00:27:45;;;;;;;6.30;5.47;;;;;;;11.43;73.53;102382.16;682842;29;900;-62
2021/06/24 00:28:06;;;;;;;6.67;5.40;;;;;;;11.45;73.48;102380.34;682711;29;778;-63
2021/06/24 00:28:27;;;;;;;7.30;5.90;;;;;;;11.44;73.46;102379.47;682612;29;872;-63
2021/06/24 00:28:47;;;;;;;7.15;5.60;;;;;;;11.44;73.19;102387.38;682877;29;971;-63
2021/06/24 00:29:08;;;;;;;7.23;5.30;;;;;;;11.47;73.49;102376.78;682660;29;872;-63
2021/06/24 00:29:28;;;;;;;8.13;5.43;;;;;;;11.48;73.59;102378.50;682800;29;840;-63
2021/06/24 00:29:48;;;;;;;8.30;5.70;;;;;;;11.49;73.47;102382.00;682842;29;801;-63
2021/06/24 00:30:10;;;;;;;7.13;5.80;;;;;;;11.50;73.32;102375.84;682614;29;964;-62
2021/06/24 00:30:31;;;;;;;6.07;5.30;;;;;;;11.52;73.27;102374.03;682624;29;978;-62
2021/06/24 00:30:51;;;;;;;7.07;5.35;;;;;;;11.51;73.40;102372.28;682654;29;1514;-62
2021/06/24 00:31:12;;;;;;;6.07;5.27;;;;;;;11.51;73.19;102378.44;682707;29;831;-63
2021/06/24 00:31:32;;;;;;;6.93;5.53;;;;;;;11.43;73.54;102376.88;682772;29;941;-63
2021/06/24 00:31:52;;;;;;;6.90;5.50;;;;;;;11.38;73.25;102375.19;682771;29;829;-63
2021/06/24 00:32:13;;;;;;;6.37;5.53;;;;;;;11.35;73.30;102371.72;682775;29;977;-63
2021/06/24 00:32:33;;;;;;;6.35;5.45;;;;;;;11.38;73.27;102377.81;682357;29;1521;-62
2021/06/24 00:32:56;;;;;;;6.50;5.63;;;;;;;11.47;73.38;102370.63;682083;29;1490;-62
2021/06/24 00:33:17;;;;;;;6.25;5.60;;;;;;;11.51;73.34;102372.28;682731;29;1505;-62
2021/06/24 00:33:37;;;;;;;6.70;5.27;;;;;;;11.51;73.31;102367.00;682524;29;1907;-63
2021/06/24 00:33:57;;;;;;;6.10;5.50;;;;;;;11.46;73.13;102374.16;682794;28;1408;-63
2021/06/24 00:34:18;;;;;;;7.07;5.60;;;;;;;11.44;73.14;102370.69;682832;29;933;-63
2021/06/24 00:34:38;;;;;;;7.17;5.13;;;;;;;11.45;73.23;102373.28;682609;28;1043;-63
2021/06/24 00:35:02;;;;;;;6.63;5.20;;;;;;;11.45;73.25;102377.69;683466;29;822;-63
2021/06/24 00:35:22;;;;;;;6.10;5.25;;;;;;;11.40;73.38;102370.75;683368;29;840;-63
2021/06/24 00:35:43;;;;;;;6.35;5.60;;;;;;;11.39;73.46;102371.66;683275;29;801;-63
2021/06/24 00:36:04;;;;;;;7.20;5.70;;;;;;;11.39;73.26;102373.44;683373;29;976;-63
2021/06/24 00:36:24;;;;;;;6.70;5.40;;;;;;;11.41;73.37;102372.47;683258;29;754;-63
2021/06/24 00:36:44;;;;;;;7.03;5.40;;;;;;;11.45;73.38;102372.41;683235;29;904;-63
2021/06/24 00:37:05;;;;;;;6.53;5.50;;;;;;;11.40;73.38;102373.38;683305;29;772;-63
2021/06/24 00:37:25;;;;;;;6.47;5.55;;;;;;;11.36;73.32;102374.34;683256;29;813;-63
2021/06/24 00:37:47;;;;;;;7.50;5.40;;;;;;;11.38;73.51;102369.03;683399;29;865;-63
2021/06/24 00:38:07;;;;;;;7.18;5.32;;;;;;;11.37;73.36;102368.16;683338;29;841;-63
2021/06/24 00:38:27;;;;;;;7.67;5.73;;;;;;;11.28;73.74;102365.72;683121;29;984;-63
2021/06/24 00:38:48;;;;;;;7.40;5.80;;;;;;;11.28;73.91;102365.72;683253;29;849;-63
2021/06/24 00:39:08;;;;;;;8.32;5.80;;;;;;;11.24;74.10;102368.44;683375;29;994;-63
2021/06/24 00:39:28;;;;;;;7.17;5.53;;;;;;;11.20;74.30;102362.38;683217;29;1023;-62
2021/06/24 00:39:48;;;;;;;7.07;5.57;;;;;;;11.11;74.25;102362.53;683363;29;916;-63
2021/06/24 00:40:11;;;;;;;6.63;5.60;;;;;;;11.14;74.30;102362.47;683314;29;920;-63
2021/06/24 00:40:34;;;;;;;7.05;5.43;;;;;;;11.20;74.27;102367.66;683236;29;879;-63
2021/06/24 00:40:54;;;;;;;6.18;5.32;;;;;;;11.24;74.13;102366.69;683197;29;893;-63
2021/06/24 00:41:16;;;;;;;5.93;5.30;;;;;;;11.28;74.36;102360.44;683194;29;853;-63
2021/06/24 00:41:36;;;;;;;6.13;5.32;;;;;;;11.33;73.90;102369.13;683107;29;1463;-62
2021/06/24 00:41:56;;;;;;;8.63;5.70;;;;;;;11.32;74.12;102362.13;683223;29;940;-63
2021/06/24 00:42:17;;;;;;;7.95;5.60;;;;;;;11.32;73.86;102362.13;683317;29;948;-63
2021/06/24 00:42:38;;;;;;;6.83;5.60;;;;;;;11.37;73.74;102367.31;683231;29;880;-63
2021/06/24 00:43:00;;;;;;;6.97;5.45;;;;;;;11.34;73.59;102360.31;682677;29;1000;-63
2021/06/24 00:43:22;;;;;;;7.43;5.72;;;;;;;11.34;73.81;102365.59;683286;29;861;-63
2021/06/24 00:43:43;;;;;;;6.45;5.72;;;;;;;11.33;73.57;102369.13;683339;29;1013;-63
2021/06/24 00:44:03;;;;;;;6.72;5.40;;;;;;;11.33;73.73;102369.13;683056;29;1256;-63
2021/06/24 00:44:24;;;;;;;7.53;5.37;;;;;;;11.34;73.87;102364.72;683290;29;837;-63
2021/06/24 00:44:44;;;;;;;7.63;5.47;;;;;;;11.35;73.67;102364.69;683210;29;996;-62
2021/06/24 00:45:07;;;;;;;7.07;5.63;;;;;;;11.34;73.40;102362.09;683188;29;853;-63
2021/06/24 00:45:27;;;;;;;6.60;5.55;;;;;;;11.33;73.55;102361.22;683418;29;955;-62
2021/06/24 00:45:47;;;;;;;5.90;5.30;;;;;;;11.37;73.46;102364.66;683265;29;897;-63
2021/06/24 00:46:08;;;;;;;6.63;5.40;;;;;;;11.41;73.26;102361.91;683296;29;865;-63
2021/06/24 00:46:28;;;;;;;7.40;5.30;;;;;;;11.43;73.30;102364.53;683290;29;841;-63
2021/06/24 00:46:52;;;;;;;7.17;5.50;;;;;;;11.33;73.41;102363.84;680244;29;1000;-62
2021/06/24 00:47:12;;;;;;;7.50;5.40;;;;;;;11.28;73.54;102363.06;680376;29;834;-62
2021/06/24 00:47:32;;;;;;;6.60;5.53;;;;;;;11.28;73.43;102363.06;680132;29;1530;-62
2021/06/24 00:47:52;;;;;;;6.37;5.43;;;;;;;11.28;73.75;102364.84;680562;29;833;-62
2021/06/24 00:48:13;;;;;;;6.93;5.40;;;;;;;11.25;74.06;102363.16;680421;29;899;-62
2021/06/24 00:48:33;;;;;;;7.63;5.40;;;;;;;11.22;74.13;102368.50;680963;29;826;-62
2021/06/24 00:48:58;;;;;;;8.13;5.63;;;;;;;11.22;74.05;102359.69;680389;29;1026;-63
2021/06/24 00:49:19;;;;;;;6.80;5.75;;;;;;;11.18;73.96;102353.59;680386;29;857;-62
2021/06/24 00:49:39;;;;;;;6.33;5.40;;;;;;;11.21;74.00;102363.22;680440;29;805;-62
2021/06/24 00:50:00;;;;;;;7.30;5.65;;;;;;;11.23;74.26;102364.09;680537;29;1022;-62
2021/06/24 00:50:20;;;;;;;7.50;5.57;;;;;;;11.23;74.10;102364.94;680068;29;1574;-63
2021/06/24 00:50:44;;;;;;;5.80;5.20;;;;;;;11.25;73.75;102365.81;681250;29;1511;-63
2021/06/24 00:51:04;;;;;;;7.43;5.25;;;;;;;11.23;74.34;102367.59;683102;29;928;-62
2021/06/24 00:51:25;;;;;;;8.10;5.57;;;;;;;11.23;74.07;102367.59;683164;29;822;-63
2021/06/24 00:51:45;;;;;;;7.10;5.73;;;;;;;11.19;74.46;102363.28;683332;29;853;-63
2021/06/24 00:52:06;;;;;;;6.38;5.53;;;;;;;11.21;74.38;102366.75;683054;29;814;-63
2021/06/24 00:52:26;;;;;;;6.93;5.43;;;;;;;11.24;74.29;102366.69;683296;29;841;-63
2021/06/24 00:52:46;;;;;;;6.70;5.50;;;;;;;11.22;74.57;102359.69;682465;29;1490;-62
2021/06/24 00:53:07;;;;;;;6.87;5.53;;;;;;;11.25;74.32;102360.53;683147;29;1050;-63
2021/06/24 00:53:27;;;;;;;7.10;5.45;;;;;;;11.19;74.37;102360.63;683182;29;1016;-63
2021/06/24 00:53:47;;;;;;;6.47;5.57;;;;;;;11.17;74.72;102357.16;683246;29;1914;-63
2021/06/24 00:54:08;;;;;;;6.70;5.50;;;;;;;11.11;74.81;102358.16;683062;28;1335;-63
2021/06/24 00:54:28;;;;;;;7.65;5.55;;;;;;;11.12;74.69;102364.31;683238;29;936;-63
2021/06/24 00:54:48;;;;;;;6.27;5.33;;;;;;;11.12;74.96;102361.66;683286;29;829;-63
2021/06/24 00:55:09;;;;;;;6.88;5.95;;;;;;;11.10;74.89;102355.53;683353;29;932;-63
2021/06/24 00:55:40;;;;;;;6.40;5.70;;;;;;;11.10;74.76;102361.69;684208;29;861;-63
2021/06/24 00:56:03;;;;;;;7.85;5.80;;;;;;;11.05;75.02;102362.69;684121;29;857;-63
2021/06/24 00:56:31;;;;;;;6.95;6.00;;;;;;;11.07;75.20;102355.59;684106;29;805;-64
2021/06/24 00:56:52;;;;;;;7.75;5.78;;;;;;;11.08;75.00;102354.69;684128;29;1061;-63
2021/06/24 00:57:12;;;;;;;7.23;5.90;;;;;;;11.07;75.13;102353.81;683718;29;975;-63
2021/06/24 00:57:32;;;;;;;7.47;5.90;;;;;;;11.00;75.24;102354.84;684009;29;988;-62
2021/06/24 00:57:53;;;;;;;7.63;5.97;;;;;;;11.03;74.96;102348.66;684033;29;952;-62
2021/06/24 00:58:17;;;;;;;7.67;5.87;;;;;;;11.08;74.82;102357.31;683424;29;968;-65
2021/06/24 00:58:37;;;;;;;7.32;5.50;;;;;;;11.11;74.74;102351.97;683061;29;855;-64
2021/06/24 00:59:00;;;;;;;6.80;5.70;;;;;;;11.13;74.84;102355.47;682813;29;1386;-64
2021/06/24 00:59:21;;;;;;;7.65;5.53;;;;;;;11.15;74.71;102356.34;683225;29;876;-62
2021/06/24 00:59:41;;;;;;;7.13;5.40;;;;;;;11.20;74.69;102356.22;683144;29;894;-62
2021/06/24 01:00:04;;;;;;;7.00;5.50;;;;;;;11.17;74.70;102358.00;683283;29;861;-63
2021/06/24 01:00:25;;;;;;;7.95;5.75;;;;;;;11.16;74.72;102358.91;682981;29;879;-63
2021/06/24 01:00:48;;;;;;;7.60;5.88;;;;;;;11.14;74.60;102355.44;683172;29;878;-63
2021/06/24 01:01:08;;;;;;;7.68;5.80;;;;;;;11.08;74.96;102357.31;683285;29;823;-63
2021/06/24 01:01:30;;;;;;;8.05;5.80;;;;;;;11.11;74.55;102367.81;683095;29;982;-63
2021/06/24 01:01:51;;;;;;;7.20;5.20;;;;;;;11.14;74.37;102362.47;683246;29;841;-63
2021/06/24 01:02:11;;;;;;;6.07;5.47;;;;;;;11.17;74.64;102365.06;683318;29;979;-63
2021/06/24 01:02:31;;;;;;;6.67;5.67;;;;;;;11.19;74.52;102363.28;683145;29;865;-62
2021/06/24 01:02:51;;;;;;;6.50;5.60;;;;;;;11.16;74.56;102365.97;682816;29;860;-62
2021/06/24 01:03:13;;;;;;;6.50;5.60;;;;;;;11.16;74.66;102368.63;683354;29;877;-62
2021/06/24 01:03:34;;;;;;;6.65;5.45;;;;;;;11.20;74.54;102370.28;682975;29;1601;-62
2021/06/24 01:03:54;;;;;;;7.53;5.70;;;;;;;11.22;74.25;102368.50;683153;29;1209;-63
2021/06/24 01:04:21;;;;;;;6.10;5.50;;;;;;;11.26;74.07;102372.81;683204;29;899;-62
2021/06/24 01:04:42;;;;;;;6.30;5.65;;;;;;;11.25;74.35;102370.19;683132;29;995;-62
2021/06/24 01:05:03;;;;;;;6.10;5.30;;;;;;;11.29;74.17;102369.25;682959;29;1001;-63
2021/06/24 01:05:23;;;;;;;6.70;5.30;;;;;;;11.30;74.25;102371.84;683024;29;1062;-62
2021/06/24 01:05:44;;;;;;;6.95;5.45;;;;;;;11.24;74.05;102369.31;683052;29;957;-63
2021/06/24 01:06:05;;;;;;;7.00;5.82;;;;;;;11.15;74.19;102367.75;682918;29;888;-62
2021/06/24 01:06:25;;;;;;;7.20;5.68;;;;;;;11.15;74.08;102365.13;683086;29;900;-62
2021/06/24 01:06:45;;;;;;;7.03;5.57;;;;;;;11.14;74.39;102365.13;683042;29;849;-62
2021/06/24 01:07:06;;;;;;;6.60;5.60;;;;;;;11.09;74.58;102359.94;683051;29;1585;-63
2021/06/24 01:07:26;;;;;;;6.25;5.30;;;;;;;11.14;74.52;102363.34;683137;29;1498;-62
2021/06/24 01:07:46;;;;;;;6.60;5.50;;;;;;;11.16;74.75;102363.34;683288;29;865;-62
2021/06/24 01:08:10;;;;;;;8.03;5.80;;;;;;;11.06;74.73;102367.91;683255;29;979;-63
2021/06/24 01:08:30;;;;;;;7.60;5.60;;;;;;;11.05;74.96;102362.69;683144;29;892;-64
2021/06/24 01:08:51;;;;;;;8.03;5.70;;;;;;;11.08;74.54;102357.31;683122;29;888;-62
2021/06/24 01:09:11;;;;;;;6.78;5.68;;;;;;;11.09;74.90;102362.59;683182;29;984;-62
2021/06/24 01:09:33;;;;;;;6.20;5.43;;;;;;;11.08;74.65;102359.97;683261;29;901;-62
2021/06/24 01:09:53;;;;;;;6.07;5.47;;;;;;;11.10;74.72;102360.81;680173;29;1784;-63
2021/06/24 01:10:13;;;;;;;7.20;5.70;;;;;;;11.10;74.74;102360.81;680373;29;841;-62
2021/06/24 01:10:34;;;;;;;7.57;5.63;;;;;;;11.05;75.17;102365.31;680319;29;845;-62
2021/06/24 01:10:54;;;;;;;7.43;5.87;;;;;;;11.07;75.00;102360.88;680453;29;822;-63
2021/06/24 01:11:15;;;;;;;7.15;5.80;;;;;;;11.10;74.88;102358.19;680404;29;876;-63
2021/06/24 01:11:38;;;;;;;7.10;5.97;;;;;;;11.05;75.14;102352.13;680514;29;960;-63
2021/06/24 01:12:01;;;;;;;6.55;5.78;;;;;;;11.06;75.14;102360.00;682967;29;1523;-63
2021/06/24 01:12:21;;;;;;;6.93;5.40;;;;;;;11.06;75.26;102359.13;683088;29;960;-63
2021/06/24 01:12:42;;;;;;;7.60;5.73;;;;;;;11.10;75.24;102361.69;682891;29;952;-63
2021/06/24 01:13:03;;;;;;;6.97;5.90;;;;;;;11.13;74.96;102358.13;683048;29;973;-63
2021/06/24 01:13:24;;;;;;;6.45;5.80;;;;;;;11.11;74.99;102354.63;683122;29;1000;-63
2021/06/24 01:13:47;;;;;;;6.65;5.50;;;;;;;11.12;74.71;102359.88;683219;29;1915;-62
2021/06/24 01:14:09;;;;;;;8.00;6.07;;;;;;;11.08;74.58;102357.31;683284;29;894;-62
2021/06/24 01:14:29;;;;;;;7.57;5.70;;;;;;;11.09;74.92;102354.66;683103;29;872;-62
2021/06/24 01:14:50;;;;;;;6.23;5.60;;;;;;;11.18;74.66;102353.59;683136;29;979;-62
2021/06/24 01:15:11;;;;;;;6.50;5.80;;;;;;;11.15;74.44;102358.97;683165;29;1071;-62
2021/06/24 01:15:32;;;;;;;7.10;5.60;;;;;;;11.07;74.69;102361.72;683132;29;1185;-63
2021/06/24 01:15:53;;;;;;;7.90;5.73;;;;;;;11.03;74.89;102354.78;683276;29;833;-62
2021/06/24 01:16:14;;;;;;;7.40;5.70;;;;;;;11.03;75.12;102353.91;683168;29;904;-62
2021/06/24 01:16:39;;;;;;;7.13;5.78;;;;;;;11.08;74.90;102357.31;683171;29;864;-62
2021/06/24 01:16:59;;;;;;;7.70;5.70;;;;;;;11.06;74.63;102360.00;683200;29;900;-63
2021/06/24 01:17:19;;;;;;;7.93;5.70;;;;;;;11.05;75.06;102353.00;682639;29;1448;-62
2021/06/24 01:17:40;;;;;;;7.30;6.10;;;;;;;11.10;74.56;102358.19;683291;29;774;-62
2021/06/24 01:18:01;;;;;;;7.28;5.70;;;;;;;11.06;74.88;102352.09;683184;29;877;-62
2021/06/24 01:18:21;;;;;;;8.15;5.80;;;;;;;11.08;75.11;102354.69;683293;29;865;-62
2021/06/24 01:18:42;;;;;;;7.17;5.70;;;;;;;11.08;75.24;102355.59;683168;29;939;-63
2021/06/24 01:19:04;;;;;;;6.93;5.60;;;;;;;11.04;75.17;102351.22;683088;29;813;-63
2021/06/24 01:19:24;;;;;;;6.95;5.80;;;;;;;11.02;75.37;102357.47;683313;29;897;-62
2021/06/24 01:19:44;;;;;;;6.65;5.72;;;;;;;11.02;75.32;102357.47;683251;29;904;-64
2021/06/24 01:20:05;;;;;;;6.90;6.00;;;;;;;11.03;75.13;102357.44;683212;29;786;-62
2021/06/24 01:20:32;;;;;;;7.05;5.85;;;;;;;11.00;75.32;102359.25;683285;29;972;-62
2021/06/24 01:20:53;;;;;;;8.00;5.95;;;;;;;10.92;75.61;102356.78;683072;29;955;-63
2021/06/24 01:21:14;;;;;;;6.75;5.65;;;;;;;10.95;75.66;102354.06;683151;29;881;-62
2021/06/24 01:21:34;;;;;;;6.50;5.80;;;;;;;10.92;75.29;102362.91;683236;29;853;-63
2021/06/24 01:21:56;;;;;;;7.20;5.90;;;;;;;10.99;75.49;102352.25;682996;29;1526;-63
2021/06/24 01:22:16;;;;;;;7.32;5.60;;;;;;;11.03;75.40;102359.19;683164;29;953;-63
2021/06/24 01:22:37;;;;;;;7.10;5.70;;;;;;;11.02;75.21;102357.47;682748;29;1475;-63
2021/06/24 01:22:58;;;;;;;8.17;5.83;;;;;;;10.98;75.18;102355.75;682818;29;869;-63
2021/06/24 01:23:18;;;;;;;7.65;5.65;;;;;;;10.95;75.44;102355.84;683265;29;872;-63
2021/06/24 01:23:40;;;;;;;7.67;5.50;;;;;;;10.93;75.42;102362.00;683219;29;841;-62
2021/06/24 01:24:01;;;;;;;6.43;5.60;;;;;;;10.96;75.66;102357.59;682856;29;1530;-63
2021/06/24 01:24:21;;;;;;;7.50;6.20;;;;;;;11.00;75.40;102348.69;683319;29;928;-63
2021/06/24 01:24:41;;;;;;;8.32;6.03;;;;;;;11.06;75.20;102360.00;683039;29;1023;-62
2021/06/24 01:25:02;;;;;;;7.17;5.67;;;;;;;11.09;74.98;102353.81;682984;29;1486;-62
2021/06/24 01:25:23;;;;;;;6.35;5.60;;;;;;;11.06;75.24;102356.50;683166;29;834;-62
2021/06/24 01:25:43;;;;;;;6.82;5.88;;;;;;;11.02;75.54;102347.78;683297;29;857;-62
2021/06/24 01:26:03;;;;;;;7.23;6.00;;;;;;;10.99;75.44;102354.88;683224;29;992;-63
2021/06/24 01:26:24;;;;;;;6.63;5.70;;;;;;;10.97;75.40;102354.91;682931;29;1490;-63
2021/06/24 01:26:46;;;;;;;6.80;5.50;;;;;;;11.00;75.54;102356.63;683004;29;1445;-62
2021/06/24 01:27:06;;;;;;;6.95;5.82;;;;;;;11.00;75.66;102356.63;683180;29;865;-62
2021/06/24 01:27:27;;;;;;;7.53;5.93;;;;;;;10.93;75.68;102355.88;683052;29;873;-62
2021/06/24 01:27:53;;;;;;;7.50;6.20;;;;;;;10.99;75.57;102353.13;683275;29;844;-63
2021/06/24 01:28:13;;;;;;;7.10;6.00;;;;;;;10.97;75.56;102354.91;683173;29;983;-63
2021/06/24 01:28:34;;;;;;;6.80;6.00;;;;;;;10.96;75.49;102349.66;683208;29;934;-63
2021/06/24 01:28:54;;;;;;;7.47;5.80;;;;;;;10.95;75.91;102353.22;683168;29;782;-63
2021/06/24 01:29:15;;;;;;;6.83;6.10;;;;;;;10.94;75.47;102357.59;683121;29;849;-63
2021/06/24 01:29:35;;;;;;;6.93;6.18;;;;;;;10.90;75.68;102356.78;683212;29;889;-62
2021/06/24 01:29:55;;;;;;;7.50;6.20;;;;;;;10.91;75.75;102355.03;683238;29;877;-62
2021/06/24 01:30:16;;;;;;;7.70;5.90;;;;;;;10.87;75.55;102356.88;683066;29;924;-62
2021/06/24 01:30:39;;;;;;;7.15;5.85;;;;;;;10.92;75.79;102356.78;683240;29;825;-63
2021/06/24 01:30:59;;;;;;;6.65;5.88;;;;;;;10.93;75.67;102354.09;683064;29;1039;-63
2021/06/24 01:31:21;;;;;;;6.55;5.60;;;;;;;10.90;75.62;102354.13;683214;29;873;-63
2021/06/24 01:31:42;;;;;;;7.20;6.00;;;;;;;10.92;75.77;102351.50;683239;29;924;-63
2021/06/24 01:32:03;;;;;;;7.63;6.25;;;;;;;10.88;75.92;102347.19;683151;29;817;-63
2021/06/24 01:32:28;;;;;;;7.18;6.35;;;;;;;10.85;76.02;102349.88;683221;29;836;-62
2021/06/24 01:32:49;;;;;;;7.47;6.10;;;;;;;10.89;75.86;102352.41;682383;29;1486;-63
2021/06/24 01:33:10;;;;;;;7.70;5.83;;;;;;;10.96;75.46;102357.59;683111;29;921;-63
2021/06/24 01:33:31;;;;;;;8.50;6.03;;;;;;;10.98;75.62;102350.47;683027;29;1535;-62
2021/06/24 01:33:51;;;;;;;7.70;6.10;;;;;;;10.85;75.67;102356.00;682592;28;1958;-63
2021/06/24 01:34:12;;;;;;;6.90;6.20;;;;;;;10.83;75.78;102352.53;683209;29;892;-62
2021/06/24 01:34:33;;;;;;;7.55;6.18;;;;;;;10.76;75.93;102357.94;683210;29;846;-62
2021/06/24 01:34:54;;;;;;;6.63;5.82;;;;;;;10.68;76.53;102361.59;683177;29;917;-63
2021/06/24 01:35:18;;;;;;;7.87;6.13;;;;;;;10.71;76.05;102360.69;683048;29;872;-63
2021/06/24 01:35:39;;;;;;;7.38;6.10;;;;;;;10.66;76.66;102351.97;683181;29;979;-63
2021/06/24 01:36:03;;;;;;;6.75;6.05;;;;;;;10.69;76.44;102355.41;683224;29;903;-63
2021/06/24 01:36:23;;;;;;;6.95;6.25;;;;;;;10.76;76.56;102358.81;683119;29;1231;-63
2021/06/24 01:36:44;;;;;;;6.87;6.17;;;;;;;10.72;76.75;102365.03;682765;29;1578;-62
2021/06/24 01:37:05;;;;;;;8.25;5.85;;;;;;;10.75;76.13;102359.72;683057;29;1463;-63
2021/06/24 01:37:26;;;;;;;7.10;5.82;;;;;;;10.79;76.13;102366.66;682931;29;1092;-63
2021/06/24 01:37:46;;;;;;;6.83;6.13;;;;;;;10.77;76.28;102357.94;683116;29;857;-63
2021/06/24 01:38:09;;;;;;;6.80;5.95;;;;;;;10.77;76.33;102357.03;683218;29;809;-63
2021/06/24 01:38:30;;;;;;;7.45;5.97;;;;;;;10.72;76.27;102361.53;683108;29;1030;-63
2021/06/24 01:38:51;;;;;;;7.10;6.00;;;;;;;10.74;76.41;102360.63;683092;29;938;-63
2021/06/24 01:39:13;;;;;;;7.43;6.17;;;;;;;10.82;76.07;102356.06;683208;29;928;-62
2021/06/24 01:39:33;;;;;;;7.13;6.18;;;;;;;10.82;76.03;102355.22;683095;29;932;-63
2021/06/24 01:39:54;;;;;;;6.55;5.75;;;;;;;10.85;75.75;102358.66;683194;29;880;-62
2021/06/24 01:40:15;;;;;;;6.87;5.70;;;;;;;10.88;75.88;102360.38;683121;29;988;-63
2021/06/24 01:40:36;;;;;;;7.00;5.80;;;;;;;10.86;75.74;102355.09;683174;29;837;-63
2021/06/24 01:40:56;;;;;;;6.95;6.25;;;;;;;10.85;76.20;102360.44;683129;29;857;-63